Main page
METAR-TAF:

METAR-TAF

Airports :

Visby Airport

Visby, Gotland, Sweden

latitude: 57-40N, longitude: 018-21E, elevation: 51 m

Current weather observation

The report was made 20 minutes ago, at 22:50 UTC
Wind 21 kt from the Southwest
Temperature 6°C
Humidity 75%
Pressure 997 hPa
Visibility 10 km or more

METAR: ESSV 172250Z AUTO 22021KT 9999 OVC030/// 06/02 Q0997

Time: 00:10 (23:10 UTC)

Forecast

The report was made 4 hours and 55 minutes ago, at 18:15 UTC
Forecast valid from 17 at 18 UTC to 17 at 23 UTC
Wind 24 kt from the Southwest with gusts up to 34 kt
Visibility 10 km or more
Scattered clouds at a height of 3500 ft

TAF: ESSV 171815Z 1718/1723 23024G34KT 9999 SCT035

Weather observations and forecasts of more than 4000 airports (METAR and TAF reports).

The available stations are represented by yellow and red dots on the map.

Hover mouse over dot to see the name of the station.

Then click to see weather observations and forecasts.

To change the map : click on the green buttons with a black cross to zoom in, on the green button with a dash to zoom out, or on the green arrows for adjacent maps.


METAR-TAF: